Time;durP1;ratioP1;P1;durP2;ratioP2;P2;SDS_P1;SDS_P2;PMS_P1;PMS_P2;Temp;Humidity;BMP_temperature;BMP_pressure;BME280_temperature;BME280_humidity;BME280_pressure;Samples;Min_cycle;Max_cycle;Signal;HPM_P1;HPM_P2
2022/05/21 00:00:26;;;;;;;6.20;1.62;;;;;;;12.61;73.77;101655.88;1881683;75;21051;-59
2022/05/21 00:02:55;;;;;;;5.03;2.30;;;;;;;12.58;73.60;101652.89;1872714;76;21047;-66
2022/05/21 00:05:27;;;;;;;5.60;1.77;;;;;;;12.55;73.64;101656.94;1873017;75;21125;-66
2022/05/21 00:07:56;;;;;;;13.90;2.75;;;;;;;12.53;73.62;101664.05;1870663;76;21098;-64
2022/05/21 00:10:26;;;;;;;5.22;2.05;;;;;;;12.47;73.66;101661.16;1884762;75;21075;-64
2022/05/21 00:12:55;;;;;;;6.45;2.52;;;;;;;12.44;73.62;101656.42;1910401;75;21003;-63
2022/05/21 00:15:27;;;;;;;7.45;1.95;;;;;;;12.42;73.51;101655.61;1896635;75;21146;-60
2022/05/21 00:17:55;;;;;;;1.77;1.22;;;;;;;12.39;73.55;101661.84;1880656;75;21023;-61
2022/05/21 00:23:15;;;;;;;4.15;2.58;;;;;;;12.36;73.41;101655.36;1857067;75;21079;-59
2022/05/21 00:25:45;;;;;;;7.55;1.50;;;;;;;12.35;73.55;101658.44;1908408;75;21101;-60
2022/05/21 00:28:14;;;;;;;3.20;2.17;;;;;;;12.34;73.50;101659.36;1854938;75;21028;-60
2022/05/21 00:30:45;;;;;;;10.65;2.75;;;;;;;12.31;73.49;101655.48;1857922;75;21015;-57
2022/05/21 00:33:15;;;;;;;4.87;2.30;;;;;;;12.31;73.45;101666.05;1872329;77;21133;-59
2022/05/21 00:35:44;;;;;;;7.35;2.80;;;;;;;12.29;73.49;101662.59;1872409;77;21493;-58
2022/05/21 00:38:12;;;;;;;4.90;1.90;;;;;;;12.27;73.46;101655.19;1872659;77;21490;-58
2022/05/21 00:40:42;;;;;;;4.55;2.22;;;;;;;12.30;73.70;101655.09;1872515;77;21047;-57
2022/05/21 00:43:39;;;;;;;5.60;2.55;;;;;;;12.31;73.70;101658.59;1872448;77;21047;-57
2022/05/21 00:46:25;;;;;;;2.45;1.62;;;;;;;12.31;73.81;101654.17;1872450;77;21568;-59
2022/05/21 00:49:06;;;;;;;7.22;2.27;;;;;;;12.33;73.63;101648.38;1865431;77;21556;-59
2022/05/21 00:51:38;;;;;;;4.90;2.47;;;;;;;12.34;73.65;101654.55;1872517;77;21023;-59
2022/05/21 00:54:08;;;;;;;3.10;1.55;;;;;;;12.34;73.73;101651.91;1870531;77;21075;-59
2022/05/21 00:56:39;;;;;;;4.75;2.50;;;;;;;12.34;73.72;101645.30;1872545;77;21047;-59
2022/05/21 01:01:57;;;;;;;3.87;1.98;;;;;;;12.45;74.20;101640.97;1865795;77;21474;-57
2022/05/21 01:04:27;;;;;;;5.25;1.60;;;;;;;12.53;74.16;101638.95;1865752;77;21584;-57
2022/05/21 01:06:58;;;;;;;5.85;2.00;;;;;;;12.56;73.87;101633.58;1865761;77;21532;-57
2022/05/21 01:09:27;;;;;;;17.42;2.27;;;;;;;12.53;73.67;101634.53;1865944;77;21044;-57
2022/05/21 01:11:57;;;;;;;2.45;1.42;;;;;;;12.48;73.62;101627.67;1865796;77;21080;-57
2022/05/21 01:14:26;;;;;;;3.08;1.60;;;;;;;12.43;73.68;101629.16;1865767;77;21027;-57
2022/05/21 01:16:55;;;;;;;13.03;2.80;;;;;;;12.38;73.69;101627.58;1865710;77;21137;-58
2022/05/21 01:19:24;;;;;;;3.33;1.65;;;;;;;12.34;73.89;101621.53;1865733;77;21048;-57
2022/05/21 01:21:52;;;;;;;9.23;2.20;;;;;;;12.31;73.87;101625.12;1865896;77;21074;-57
2022/05/21 01:24:21;;;;;;;3.35;1.77;;;;;;;12.29;73.96;101620.81;1873048;76;21059;-57
2022/05/21 01:26:50;;;;;;;9.40;2.05;;;;;;;12.31;74.03;101611.06;1877345;76;21099;-57
2022/05/21 01:29:25;;;;;;;7.25;1.80;;;;;;;12.31;73.99;101613.23;1877311;76;21477;-57
2022/05/21 01:31:55;;;;;;;3.22;1.75;;;;;;;12.30;73.82;101614.17;1876992;76;21121;-57
2022/05/21 01:34:24;;;;;;;6.95;2.37;;;;;;;12.31;73.75;101609.27;1877379;76;21109;-57
2022/05/21 01:36:52;;;;;;;4.72;1.98;;;;;;;12.36;73.74;101611.78;1877351;76;21087;-57
2022/05/21 01:39:21;;;;;;;9.08;1.95;;;;;;;12.40;73.62;101619.15;1877314;76;21109;-57
2022/05/21 01:41:50;;;;;;;3.47;1.90;;;;;;;12.40;73.50;101619.15;1877315;76;21157;-57
2022/05/21 01:47:07;;;;;;;4.42;1.80;;;;;;;12.43;73.42;101620.34;1877280;76;21541;-58
2022/05/21 01:49:37;;;;;;;4.08;2.08;;;;;;;12.45;73.20;101618.08;1859477;76;21034;-59
2022/05/21 01:52:07;;;;;;;5.12;1.90;;;;;;;12.46;73.05;101614.51;1860035;77;21107;-58
2022/05/21 01:54:36;;;;;;;7.75;1.82;;;;;;;12.47;72.95;101611.44;1860150;77;21121;-58
2022/05/21 01:57:09;;;;;;;5.28;2.20;;;;;;;12.51;72.86;101613.05;1860266;77;21501;-58
2022/05/21 01:59:38;;;;;;;6.28;2.20;;;;;;;12.53;72.76;101617.83;1860259;76;21559;-58
2022/05/21 02:02:07;;;;;;;3.60;1.40;;;;;;;12.55;72.68;101604.11;1860044;77;21070;-58
2022/05/21 02:04:36;;;;;;;5.03;1.62;;;;;;;12.61;72.52;101615.77;1860118;77;21520;-61
2022/05/21 02:07:05;;;;;;;3.05;1.50;;;;;;;12.65;72.37;101621.39;1880661;76;21043;-61
2022/05/21 02:09:34;;;;;;;4.25;1.37;;;;;;;12.69;72.20;101612.90;1880671;76;21529;-61
2022/05/21 02:12:03;;;;;;;1.65;1.35;;;;;;;12.73;72.00;101619.34;1880728;76;21015;-60
2022/05/21 02:14:31;;;;;;;4.12;2.05;;;;;;;12.77;71.79;101627.17;1880783;76;21055;-58
2022/05/21 02:17:00;;;;;;;4.37;2.35;;;;;;;12.82;71.62;101630.49;1880692;76;21113;-58
2022/05/21 02:19:29;;;;;;;4.92;1.77;;;;;;;12.87;71.27;101631.20;1880633;76;21050;-59
2022/05/21 02:21:57;;;;;;;7.50;1.37;;;;;;;12.90;71.04;101634.61;1880646;76;21035;-58
2022/05/21 02:24:26;;;;;;;6.55;1.72;;;;;;;12.94;70.86;101638.02;1882680;76;21090;-59
2022/05/21 02:26:55;;;;;;;5.62;2.17;;;;;;;12.97;70.65;101640.56;1886227;76;21050;-57
2022/05/21 02:29:25;;;;;;;3.08;1.07;;;;;;;13.01;70.36;101646.14;1886192;76;21070;-56
2022/05/21 02:31:53;;;;;;;8.15;1.80;;;;;;;13.04;70.07;101646.05;1886196;76;21466;-56
2022/05/21 02:34:22;;;;;;;1.65;1.20;;;;;;;13.06;70.06;101639.38;1886109;76;21220;-56
2022/05/21 02:39:37;;;;;;;6.40;2.00;;;;;;;13.09;69.86;101624.25;1886175;75;21579;-56
2022/05/21 02:42:43;;;;;;;1.85;1.05;;;;;;;13.10;69.76;101636.56;1886120;76;21157;-57
2022/05/21 02:44:37;;;;;;;3.90;2.22;;;;;;;13.12;69.73;101626.79;1880923;76;21050;-58
2022/05/21 02:47:06;;;;;;;2.17;1.55;;;;;;;13.13;69.49;101625.89;1886391;76;21426;-57
2022/05/21 02:49:35;;;;;;;5.55;1.47;;;;;;;13.15;69.38;101628.48;1886181;75;21046;-57
2022/05/21 02:52:04;;;;;;;2.70;1.70;;;;;;;13.18;69.16;101623.53;1886118;76;21113;-56
2022/05/21 02:54:34;;;;;;;6.72;2.22;;;;;;;13.21;69.08;101620.78;1886124;76;21137;-56
2022/05/21 02:57:04;;;;;;;3.83;1.35;;;;;;;13.23;68.90;101627.73;1886080;76;21055;-56
2022/05/21 02:59:32;;;;;;;2.05;1.80;;;;;;;13.25;68.71;101631.66;1886166;76;21160;-56
2022/05/21 03:02:01;;;;;;;3.40;1.77;;;;;;;13.29;68.33;101626.65;1886170;76;21164;-57
2022/05/21 03:04:29;;;;;;;2.05;1.30;;;;;;;13.34;68.09;101619.91;1886119;76;21039;-57
2022/05/21 03:06:59;;;;;;;3.72;1.70;;;;;;;13.36;68.08;101607.49;1886167;76;21121;-57
2022/05/21 03:12:14;;;;;;;2.70;1.30;;;;;;;13.41;67.92;101602.44;1925461;74;21594;-58
2022/05/21 03:14:44;;;;;;;2.58;1.60;;;;;;;13.46;67.59;101592.98;1925499;74;21078;-56
2022/05/21 03:17:13;;;;;;;2.62;1.75;;;;;;;13.51;67.33;101591.89;1925481;74;21141;-57
2022/05/21 03:19:41;;;;;;;3.52;1.12;;;;;;;13.58;67.26;101581.95;1925547;74;21066;-57
2022/05/21 03:22:10;;;;;;;4.97;2.10;;;;;;;13.64;67.05;101568.94;1925584;74;21124;-57
2022/05/21 03:24:39;;;;;;;1.80;1.55;;;;;;;13.70;66.54;101571.34;1925634;74;21129;-57
2022/05/21 03:27:08;;;;;;;3.90;1.90;;;;;;;13.74;66.08;101580.91;1926284;74;21179;-57
2022/05/21 03:29:37;;;;;;;3.70;1.35;;;;;;;13.77;66.06;101572.83;1926156;74;21488;-58
2022/05/21 03:32:08;;;;;;;3.22;1.52;;;;;;;13.78;65.92;101583.83;1926137;74;21133;-58
2022/05/21 03:34:39;;;;;;;2.47;1.77;;;;;;;13.81;65.76;101585.48;1926164;74;21035;-58
2022/05/21 03:37:09;;;;;;;1.87;1.30;;;;;;;13.84;65.45;101584.05;1926420;74;21023;-58
2022/05/21 03:39:38;;;;;;;4.53;1.82;;;;;;;13.88;65.22;101587.83;1926092;74;21063;-60
2022/05/21 03:42:07;;;;;;;2.92;1.40;;;;;;;13.92;64.58;101590.36;1926154;74;21120;-58
2022/05/21 03:44:35;;;;;;;3.25;1.25;;;;;;;13.95;64.61;101596.40;1926242;74;21043;-58
2022/05/21 03:47:04;;;;;;;2.37;1.52;;;;;;;13.99;64.60;101595.34;1926274;74;21599;-60
2022/05/21 03:49:33;;;;;;;4.37;1.80;;;;;;;14.04;64.42;101574.00;1926315;74;21117;-59
2022/05/21 03:52:01;;;;;;;3.20;1.57;;;;;;;14.10;64.37;101576.39;1926127;74;21074;-59
2022/05/21 03:54:30;;;;;;;3.75;1.35;;;;;;;14.19;64.26;101584.43;1926234;74;21098;-60
2022/05/21 03:56:59;;;;;;;4.30;1.98;;;;;;;14.27;63.97;101585.85;1926237;74;21124;-58
2022/05/21 03:59:27;;;;;;;6.25;1.72;;;;;;;14.34;63.63;101585.11;1926344;74;21034;-58
2022/05/21 04:01:56;;;;;;;4.17;1.92;;;;;;;14.44;63.38;101581.17;1926165;74;21022;-60
2022/05/21 04:04:25;;;;;;;2.72;1.30;;;;;;;14.52;63.47;101570.24;1926254;74;21136;-59
2022/05/21 04:06:53;;;;;;;3.05;2.00;;;;;;;14.56;63.17;101574.48;1926236;74;20999;-61
2022/05/21 04:09:22;;;;;;;5.12;2.42;;;;;;;14.80;62.75;101565.11;1926240;74;21098;-61
2022/05/21 04:11:51;;;;;;;2.50;1.65;;;;;;;14.82;62.22;101560.61;1926318;74;21482;-59
2022/05/21 04:14:19;;;;;;;6.17;2.10;;;;;;;15.08;61.75;101563.89;1926105;74;21105;-60
2022/05/21 04:16:48;;;;;;;7.10;2.40;;;;;;;15.39;61.11;101558.91;1926267;74;21027;-60
2022/05/21 04:19:20;;;;;;;7.35;1.65;;;;;;;15.67;59.94;101556.29;1926245;74;21149;-60
2022/05/21 04:21:47;;;;;;;4.37;1.85;;;;;;;15.82;59.04;101548.97;1926123;74;21043;-60
2022/05/21 04:24:16;;;;;;;4.67;1.72;;;;;;;15.87;58.63;101577.09;1926205;74;21046;-61
2022/05/21 04:26:47;;;;;;;6.00;1.98;;;;;;;15.83;59.01;101566.61;1925085;74;21125;-62
2022/05/21 04:29:16;;;;;;;3.15;1.98;;;;;;;16.10;59.08;101550.73;1926001;74;21449;-61
2022/05/21 04:31:45;;;;;;;2.50;2.30;;;;;;;16.18;58.46;101560.05;1925965;74;21011;-61
2022/05/21 04:34:14;;;;;;;3.25;2.17;;;;;;;16.31;58.30;101564.77;1925817;74;21011;-61
2022/05/21 04:36:43;;;;;;;1.62;1.42;;;;;;;16.12;58.20;101557.70;1925911;74;21082;-61
2022/05/21 04:39:13;;;;;;;2.08;1.25;;;;;;;15.82;58.71;101534.81;1925972;74;21129;-62
2022/05/21 04:41:41;;;;;;;1.47;1.30;;;;;;;16.06;58.64;101549.16;1925887;74;21051;-61
2022/05/21 04:44:10;;;;;;;5.55;2.00;;;;;;;16.19;58.24;101556.47;1926007;74;21127;-61
2022/05/21 04:46:39;;;;;;;5.50;1.50;;;;;;;16.30;58.13;101546.60;1925947;74;21050;-61
2022/05/21 04:49:07;;;;;;;2.65;1.30;;;;;;;16.48;57.69;101548.81;1925855;74;21125;-61
2022/05/21 04:51:38;;;;;;;2.65;1.30;;;;;;;16.79;56.86;101540.11;1925865;74;21146;-61
2022/05/21 04:54:07;;;;;;;3.42;1.77;;;;;;;17.08;56.33;101535.09;1926021;74;21082;-61
2022/05/21 04:56:36;;;;;;;5.00;1.80;;;;;;;17.07;54.40;101540.48;1926022;74;21003;-61
2022/05/21 04:59:05;;;;;;;1.62;1.37;;;;;;;16.98;54.16;101548.00;1925888;74;21166;-58
2022/05/21 05:01:33;;;;;;;2.35;1.52;;;;;;;16.62;54.33;101569.39;1925961;74;21015;-59
2022/05/21 05:04:02;;;;;;;3.72;1.82;;;;;;;16.23;55.65;101516.44;1926001;74;21030;-59
2022/05/21 05:06:32;;;;;;;5.65;1.65;;;;;;;16.51;56.13;101557.12;1925831;74;21141;-59
2022/05/21 05:09:01;;;;;;;1.95;1.20;;;;;;;17.11;55.62;101560.66;1925879;74;21612;-59
2022/05/21 05:11:29;;;;;;;5.92;1.42;;;;;;;17.39;54.26;101547.19;1925925;74;21117;-59
2022/05/21 05:13:58;;;;;;;1.30;1.20;;;;;;;17.63;53.39;101540.97;1925867;74;21014;-59
2022/05/21 05:16:27;;;;;;;5.12;1.87;;;;;;;17.77;51.79;101531.73;1925907;74;21124;-59
2022/05/21 05:18:57;;;;;;;3.58;2.10;;;;;;;17.85;51.75;101544.65;1925752;74;21129;-59
2022/05/21 05:21:26;;;;;;;2.20;1.30;;;;;;;17.95;51.27;101523.20;1925889;74;21030;-59
2022/05/21 05:23:55;;;;;;;3.62;1.37;;;;;;;18.07;51.38;101515.81;1925885;74;21078;-59
2022/05/21 05:26:23;;;;;;;2.67;1.67;;;;;;;18.19;51.04;101515.59;1925812;74;21074;-59
2022/05/21 05:28:52;;;;;;;1.70;1.27;;;;;;;18.33;50.63;101544.08;1926010;74;21039;-59
2022/05/21 05:31:21;;;;;;;4.85;1.20;;;;;;;18.43;50.52;101527.94;1925787;74;21031;-60
2022/05/21 05:33:50;;;;;;;4.80;1.37;;;;;;;18.63;50.29;101540.56;1925875;74;21494;-59
2022/05/21 05:36:19;;;;;;;6.80;1.65;;;;;;;18.86;49.71;101517.36;1925863;74;21113;-59
2022/05/21 05:38:48;;;;;;;1.65;1.27;;;;;;;19.10;49.02;101531.47;1925908;74;21120;-59
2022/05/21 05:41:16;;;;;;;4.03;1.20;;;;;;;19.41;49.06;101525.54;1925988;74;21509;-59
2022/05/21 05:43:45;;;;;;;3.55;1.47;;;;;;;19.63;48.20;101548.57;1925812;74;21030;-59
2022/05/21 05:46:15;;;;;;;2.85;1.50;;;;;;;19.64;47.13;101531.60;1925998;74;21058;-59
2022/05/21 05:48:44;;;;;;;3.87;1.37;;;;;;;19.27;46.09;101515.72;1925874;74;21015;-59
2022/05/21 05:51:13;;;;;;;2.62;1.40;;;;;;;18.88;46.72;101522.11;1925991;74;21318;-59
2022/05/21 05:53:43;;;;;;;2.35;1.10;;;;;;;18.48;47.47;101523.20;1925997;74;21413;-58
2022/05/21 05:56:12;;;;;;;2.85;1.40;;;;;;;18.50;48.39;101559.95;1925869;74;21587;-59
2022/05/21 06:01:28;;;;;;;3.95;1.70;;;;;;;18.42;48.73;101553.36;1925859;74;21117;-59
2022/05/21 06:03:57;;;;;;;3.98;1.30;;;;;;;18.30;48.88;101545.13;1925830;74;21489;-59
2022/05/21 06:06:26;;;;;;;6.10;1.52;;;;;;;18.11;48.72;101537.36;1925875;74;21046;-58
2022/05/21 06:08:54;;;;;;;2.75;1.37;;;;;;;17.79;48.46;101566.28;1925765;74;21047;-59
2022/05/21 06:11:23;;;;;;;2.77;1.25;;;;;;;17.47;49.15;101547.16;1925931;74;21136;-58
2022/05/21 06:13:52;;;;;;;1.32;1.10;;;;;;;17.28;49.09;101520.70;1925829;74;21074;-58
2022/05/21 06:16:21;;;;;;;10.80;1.50;;;;;;;17.31;49.84;101557.78;1925789;74;21128;-58
2022/05/21 06:18:51;;;;;;;3.15;0.95;;;;;;;17.40;50.47;101559.56;1925898;74;21146;-58
2022/05/21 06:21:19;;;;;;;1.92;1.35;;;;;;;17.62;50.43;101552.59;1925754;74;21070;-60
2022/05/21 06:23:48;;;;;;;2.67;1.50;;;;;;;18.18;50.54;101560.98;1925877;74;21109;-60
2022/05/21 06:26:18;;;;;;;4.80;1.20;;;;;;;18.99;49.67;101548.63;1925963;74;21470;-58
2022/05/21 06:28:48;;;;;;;4.22;1.25;;;;;;;19.63;48.87;101547.72;1925752;74;21146;-57
2022/05/21 06:31:17;;;;;;;1.60;1.02;;;;;;;20.08;47.10;101552.86;1925861;74;21039;-59
2022/05/21 06:33:46;;;;;;;3.50;1.57;;;;;;;19.90;46.31;101562.48;1925770;74;21007;-60
2022/05/21 06:36:16;;;;;;;3.40;1.42;;;;;;;20.02;46.55;101540.76;1925883;74;21070;-59
2022/05/21 06:38:45;;;;;;;5.65;1.20;;;;;;;20.04;46.73;101533.00;1925955;74;21100;-58
2022/05/21 06:41:14;;;;;;;4.45;1.40;;;;;;;20.26;46.51;101520.88;1925851;74;21082;-59
2022/05/21 06:43:42;;;;;;;2.52;1.10;;;;;;;20.54;46.15;101534.56;1925850;74;21038;-59
2022/05/21 06:46:11;;;;;;;1.82;1.25;;;;;;;20.64;45.39;101534.84;1925958;74;21074;-58
2022/05/21 06:48:40;;;;;;;1.47;1.20;;;;;;;20.69;44.28;101505.07;1925758;74;21062;-59
2022/05/21 06:51:08;;;;;;;3.00;1.07;;;;;;;20.51;44.61;101542.81;1925821;74;21042;-59
2022/05/21 06:53:38;;;;;;;2.92;1.35;;;;;;;20.54;44.63;101539.06;1925821;74;21117;-59
2022/05/21 06:56:12;;;;;;;4.00;1.27;;;;;;;20.51;44.20;101524.55;1925818;74;21477;-59
2022/05/21 06:58:41;;;;;;;3.30;1.77;;;;;;;20.40;44.05;101548.05;1925960;74;21027;-59
2022/05/21 07:01:10;;;;;;;3.17;1.50;;;;;;;20.19;44.28;101521.77;1911120;74;21103;-72
2022/05/21 07:03:39;;;;;;;2.98;1.55;;;;;;;20.12;43.96;101511.13;1879881;76;21100;-64
2022/05/21 07:08:55;;;;;;;9.75;2.02;;;;;;;19.73;44.90;101546.67;1870247;77;21583;-64
2022/05/21 07:11:23;;;;;;;3.17;1.10;;;;;;;19.85;43.76;101489.77;1897210;76;21034;-62
2022/05/21 07:13:52;;;;;;;3.77;0.82;;;;;;;19.67;43.97;101547.41;1860852;77;21030;-62
2022/05/21 07:16:20;;;;;;;3.33;1.00;;;;;;;20.02;44.39;101587.05;1860899;77;21090;-62
2022/05/21 07:18:49;;;;;;;2.12;1.17;;;;;;;20.54;42.38;101561.31;1871301;74;21101;-62
2022/05/21 07:21:19;;;;;;;1.02;0.70;;;;;;;20.59;42.01;101543.62;1926041;74;21038;-62
2022/05/21 07:23:48;;;;;;;4.05;0.90;;;;;;;20.56;41.87;101555.86;1925696;74;21055;-64
2022/05/21 07:26:18;;;;;;;3.80;1.42;;;;;;;20.98;40.49;101549.88;1925743;74;21572;-62
2022/05/21 07:28:47;;;;;;;3.55;1.37;;;;;;;21.28;39.68;101519.20;1926022;74;21466;-62
2022/05/21 07:31:17;;;;;;;1.95;1.00;;;;;;;21.21;38.48;101530.86;1926337;74;21039;-60
2022/05/21 07:33:47;;;;;;;4.97;1.77;;;;;;;21.20;38.37;101511.23;1926227;74;21560;-65
2022/05/21 07:36:18;;;;;;;4.35;0.70;;;;;;;21.44;37.73;101495.70;1925633;74;21062;-66
2022/05/21 07:38:47;;;;;;;4.58;0.90;;;;;;;21.71;36.95;101529.03;1926285;74;21113;-66
2022/05/21 07:41:16;;;;;;;3.15;0.95;;;;;;;21.84;35.68;101493.25;1926229;74;21104;-66
2022/05/21 07:43:45;;;;;;;3.98;1.25;;;;;;;21.67;34.62;101485.13;1926314;74;21058;-65
2022/05/21 07:46:14;;;;;;;1.50;0.88;;;;;;;21.52;34.73;101470.55;1926265;74;21491;-66
2022/05/21 07:48:42;;;;;;;7.50;1.17;;;;;;;21.59;34.98;101536.13;1926207;74;21058;-65
2022/05/21 07:51:11;;;;;;;4.35;1.32;;;;;;;21.61;34.24;101527.13;1926111;74;21097;-66
2022/05/21 07:53:42;;;;;;;1.60;0.70;;;;;;;21.58;33.60;101476.82;1926226;74;21104;-64
2022/05/21 07:56:15;;;;;;;3.72;1.35;;;;;;;21.75;33.84;101469.35;1909580;74;21040;-64
2022/05/21 07:58:42;;;;;;;3.50;1.20;;;;;;;21.74;34.02;101493.09;1895290;76;21015;-61
2022/05/21 08:01:12;;;;;;;2.85;0.90;;;;;;;21.82;33.86;101464.37;1896761;76;21137;-70
2022/05/21 08:03:40;;;;;;;4.25;0.75;;;;;;;21.96;33.59;101503.91;1887514;76;21796;-61
2022/05/21 08:06:09;;;;;;;2.02;0.72;;;;;;;21.92;33.02;101483.67;1921629;75;21152;-61
2022/05/21 08:08:38;;;;;;;5.08;1.12;;;;;;;21.91;32.88;101449.80;1893555;76;21058;-61
2022/05/21 08:11:07;;;;;;;5.47;1.00;;;;;;;21.95;32.45;101471.88;1893411;76;21124;-61
2022/05/21 08:13:35;;;;;;;8.28;1.10;;;;;;;21.75;32.94;101508.22;1893314;76;21120;-61
2022/05/21 08:16:05;;;;;;;1.57;0.82;;;;;;;21.81;32.95;101489.48;1893176;76;21121;-61
2022/05/21 08:18:34;;;;;;;3.92;1.00;;;;;;;21.90;33.39;101488.30;1893370;76;21018;-61
2022/05/21 08:21:03;;;;;;;1.52;0.60;;;;;;;21.98;32.74;101484.57;1893453;76;21046;-61
2022/05/21 08:29:04;;;;;;;0.62;0.50;;;;;;;21.81;32.60;101467.54;1893110;75;21525;-60
2022/05/21 08:31:33;;;;;;;2.05;0.95;;;;;;;22.04;32.25;101479.69;1893106;76;21042;-61
2022/05/21 08:34:02;;;;;;;5.75;1.30;;;;;;;21.99;31.62;101451.90;1893070;76;21058;-66
2022/05/21 08:36:31;;;;;;;7.22;1.37;;;;;;;21.94;31.71;101408.00;1893019;76;21070;-61
2022/05/21 08:39:00;;;;;;;11.05;1.10;;;;;;;21.73;30.77;101368.11;1892895;76;21090;-61
2022/05/21 08:41:31;;;;;;;3.83;1.30;;;;;;;21.76;31.94;101407.59;1893042;76;21046;-58
2022/05/21 08:44:09;;;;;;;0.93;0.70;;;;;;;21.73;32.00;101464.59;1893048;76;21097;-58
2022/05/21 08:47:07;;;;;;;1.32;0.85;;;;;;;21.81;32.78;101442.57;1893161;76;21033;-58
2022/05/21 08:49:50;;;;;;;4.75;0.60;;;;;;;22.03;32.44;101476.66;1892970;76;21124;-58
2022/05/21 08:52:20;;;;;;;;;;;;;;;22.17;31.70;101492.06;1895776;74;21477;-57
2022/05/21 08:54:51;;;;;;;1.55;0.60;;;;;;;22.11;32.22;101431.32;1920817;75;20111;-57
2022/05/21 08:57:31;;;;;;;1.62;0.70;;;;;;;22.26;32.25;101482.50;1925504;74;21010;-62
2022/05/21 09:00:09;;;;;;;6.80;1.55;;;;;;;22.47;31.98;101449.61;1897165;74;21118;-63
2022/05/21 09:02:38;;;;;;;7.03;0.80;;;;;;;22.30;30.94;101463.00;1888122;76;21116;-58
2022/05/21 09:05:10;;;;;;;2.77;1.32;;;;;;;22.09;31.46;101464.11;1888037;76;21119;-57
2022/05/21 09:08:03;;;;;;;7.83;0.85;;;;;;;21.91;31.02;101377.42;1888055;76;21477;-59
2022/05/21 09:10:55;;;;;;;6.67;1.10;;;;;;;21.84;31.64;101442.31;1888085;76;21529;-59
2022/05/21 09:13:47;;;;;;;2.22;1.07;;;;;;;21.83;31.15;101373.61;1886624;74;21087;-58
2022/05/21 09:19:12;;;;;;;2.58;0.93;;;;;;;21.92;30.88;101409.94;1887705;76;21632;-58
2022/05/21 09:21:50;;;;;;;0.75;0.72;;;;;;;21.86;31.92;101438.57;1886388;76;21155;-59
2022/05/21 09:24:53;;;;;;;3.33;1.10;;;;;;;21.87;30.70;101452.33;1886053;76;21090;-59
2022/05/21 09:27:36;;;;;;;3.47;1.20;;;;;;;21.95;31.09;101360.12;1887943;75;21096;-59
2022/05/21 09:30:14;;;;;;;2.42;0.75;;;;;;;21.92;30.81;101427.37;1882548;74;21079;-59
2022/05/21 09:32:54;;;;;;;3.72;0.70;;;;;;;21.92;30.98;101438.59;1878144;76;21117;-58
2022/05/21 09:35:22;;;;;;;4.80;1.20;;;;;;;21.73;31.21;101437.80;1874852;76;21074;-58
2022/05/21 09:37:59;;;;;;;9.10;1.37;;;;;;;21.60;31.45;101411.06;1878128;76;21042;-59
2022/05/21 09:40:34;;;;;;;2.17;0.90;;;;;;;21.58;31.50;101458.06;1875152;76;21059;-59
2022/05/21 09:46:20;;;;;;;5.75;1.20;;;;;;;21.45;31.91;101431.81;1878264;76;21026;-59
2022/05/21 09:48:50;;;;;;;5.05;1.20;;;;;;;21.43;31.70;101408.73;1878190;76;21046;-58
2022/05/21 09:51:30;;;;;;;3.27;0.72;;;;;;;21.43;32.19;101416.28;1878222;76;21113;-58
2022/05/21 09:53:55;;;;;;;4.40;0.90;;;;;;;21.52;32.43;101395.53;1876105;76;21556;-59
2022/05/21 09:56:31;;;;;;;2.08;0.90;;;;;;;21.37;32.21;101426.13;1878191;76;21003;-58
2022/05/21 09:59:18;;;;;;;1.17;0.80;;;;;;;21.23;32.36;101328.06;1878208;76;21015;-58
2022/05/21 10:01:53;;;;;;;5.72;0.80;;;;;;;21.09;33.22;101401.37;1878145;76;21150;-58
2022/05/21 10:04:35;;;;;;;1.30;0.90;;;;;;;20.96;32.96;101440.71;1877753;76;21070;-59
2022/05/21 10:13:03;;;;;;;2.02;0.70;;;;;;;20.96;33.23;101438.03;1878304;76;21019;-58
2022/05/21 10:15:34;;;;;;;1.15;0.72;;;;;;;20.85;33.91;101433.94;1878306;76;21042;-58
2022/05/21 10:21:12;;;;;;;1.20;0.80;;;;;;;20.79;33.62;101440.09;1830176;78;21073;-59
2022/05/21 10:23:44;;;;;;;1.42;0.85;;;;;;;20.75;33.71;101427.02;1854339;77;21061;-58
2022/05/21 10:26:38;;;;;;;7.70;1.02;;;;;;;20.75;33.97;101359.66;1856312;77;21433;-58
2022/05/21 10:29:36;;;;;;;2.58;0.95;;;;;;;20.68;34.09;101425.77;1856227;77;21078;-58
2022/05/21 10:32:27;;;;;;;1.85;1.72;;;;;;;20.59;33.87;101380.42;1812575;79;21569;-58
2022/05/21 10:35:01;;;;;;;3.85;1.00;;;;;;;20.48;34.41;101397.72;1854880;77;21461;-58
2022/05/21 10:37:36;;;;;;;2.02;1.02;;;;;;;20.34;34.22;101422.25;1855942;77;21531;-58
2022/05/21 10:40:11;;;;;;;1.60;0.75;;;;;;;20.14;34.40;101402.72;1855770;77;21544;-58
2022/05/21 10:42:43;;;;;;;2.30;0.98;;;;;;;20.20;34.82;101387.61;1855935;77;21030;-58
2022/05/21 10:45:35;;;;;;;2.58;0.90;;;;;;;20.15;34.46;101382.56;1855948;77;21124;-58
2022/05/21 10:48:31;;;;;;;4.10;0.95;;;;;;;20.06;35.13;101390.73;1856144;77;21172;-58
2022/05/21 10:51:03;;;;;;;4.60;1.15;;;;;;;19.87;34.75;101394.31;1847076;77;21094;-58
2022/05/21 10:53:49;;;;;;;1.70;0.60;;;;;;;19.74;34.83;101318.63;1845192;77;21132;-58
2022/05/21 10:56:34;;;;;;;3.70;0.95;;;;;;;19.63;35.26;101417.67;1856118;77;21045;-58
2022/05/21 10:59:38;;;;;;;6.75;1.47;;;;;;;19.52;35.29;101326.72;1856221;77;21140;-58
2022/05/21 11:02:24;;;;;;;4.08;0.80;;;;;;;19.53;35.78;101344.47;1856209;77;21093;-58
2022/05/21 11:05:13;;;;;;;8.88;1.00;;;;;;;19.48;35.57;101363.45;1855784;77;21026;-58
2022/05/21 11:07:51;;;;;;;1.62;0.70;;;;;;;19.47;35.52;101290.11;1855549;77;21045;-58
2022/05/21 11:10:51;;;;;;;0.50;0.50;;;;;;;19.43;35.54;101350.04;1856090;77;21614;-58
2022/05/21 11:13:26;;;;;;;1.40;0.78;;;;;;;19.42;35.94;101380.36;1855991;77;21030;-58
2022/05/21 11:16:06;;;;;;;5.83;0.90;;;;;;;19.48;35.75;101354.59;1856146;77;21054;-58
2022/05/21 11:18:47;;;;;;;1.52;0.70;;;;;;;19.46;35.61;101327.14;1856083;77;21528;-57
2022/05/21 11:21:29;;;;;;;3.52;0.80;;;;;;;19.41;34.80;101353.30;1864455;77;21191;-58
2022/05/21 11:24:08;;;;;;;5.75;0.80;;;;;;;19.36;35.37;101374.09;1865092;77;21116;-57
2022/05/21 11:26:45;;;;;;;3.00;0.75;;;;;;;19.43;35.51;101371.41;1865233;77;21127;-58
2022/05/21 11:29:34;;;;;;;4.37;0.80;;;;;;;19.48;35.52;101363.45;1862927;77;21080;-58
2022/05/21 11:37:52;;;;;;;3.02;1.02;;;;;;;19.44;35.45;101361.08;1865318;77;21014;-57
2022/05/21 11:41:24;;;;;;;0.72;0.70;;;;;;;19.31;36.32;101342.83;1865232;77;21180;-57
2022/05/21 11:43:23;;;;;;;2.47;1.07;;;;;;;19.33;36.68;101339.58;1860446;77;21120;-57
2022/05/21 11:46:04;;;;;;;2.60;0.72;;;;;;;19.36;36.13;101372.76;1865218;77;21128;-57
2022/05/21 11:48:33;;;;;;;2.30;0.53;;;;;;;19.39;36.45;101345.37;1865056;77;21124;-58
2022/05/21 11:51:20;;;;;;;2.15;1.07;;;;;;;19.29;36.50;101382.52;1865214;77;21078;-58
2022/05/21 11:53:49;;;;;;;1.77;1.00;;;;;;;19.38;37.10;101300.08;1859147;77;21151;-58
2022/05/21 11:56:18;;;;;;;3.27;0.80;;;;;;;19.38;36.90;101335.64;1865293;77;21125;-57
2022/05/21 11:59:02;;;;;;;1.60;1.00;;;;;;;19.38;36.23;101361.50;1865206;77;21065;-58
2022/05/21 12:01:39;;;;;;;0.42;0.42;;;;;;;19.24;36.72;101345.92;1865191;77;21050;-58
2022/05/21 12:04:26;;;;;;;1.98;1.02;;;;;;;19.27;37.11;101352.41;1864715;77;21182;-58
2022/05/21 12:06:54;;;;;;;0.60;0.50;;;;;;;19.32;37.01;101314.70;1864246;77;21501;-57
2022/05/21 12:09:31;;;;;;;0.85;0.78;;;;;;;19.27;37.13;101296.34;1865051;77;21045;-58
2022/05/21 12:12:22;;;;;;;1.42;0.98;;;;;;;19.24;36.97;101295.20;1865293;77;21053;-58
2022/05/21 12:14:54;;;;;;;2.30;0.95;;;;;;;19.17;36.61;101321.91;1865194;77;21046;-57
2022/05/21 12:17:47;;;;;;;4.45;3.15;;;;;;;19.14;36.45;101344.80;1865211;77;21046;-58
2022/05/21 12:20:16;;;;;;;2.05;0.95;;;;;;;19.01;36.67;101334.06;1862121;77;21065;-58
2022/05/21 12:22:50;;;;;;;4.10;1.00;;;;;;;19.04;37.27;101323.69;1856404;77;21177;-58
2022/05/21 12:25:47;;;;;;;2.47;0.72;;;;;;;19.01;37.03;101319.39;1856489;77;21069;-58
2022/05/21 12:28:16;;;;;;;1.45;0.70;;;;;;;19.00;36.59;101242.97;1856389;77;21768;-58
2022/05/21 12:30:45;;;;;;;1.45;0.82;;;;;;;18.94;36.36;101322.11;1856303;77;21429;-58
2022/05/21 12:33:19;;;;;;;1.52;1.00;;;;;;;18.84;36.41;101304.48;1856280;77;21127;-57